Time;durP1;ratioP1;P1;durP2;ratioP2;P2;SDS_P1;SDS_P2;PMS_P1;PMS_P2;Temp;Humidity;BMP_temperature;BMP_pressure;BME280_temperature;BME280_humidity;BME280_pressure;Samples;Min_cycle;Max_cycle;Signal;HPM_P1;HPM_P2
2023/01/25 00:01:36;;;;;;;11.40;4.67;;;;;;;0.02;99.53;103232.16;6124687;28;20044;-72
2023/01/25 00:04:32;;;;;;;13.77;5.17;;;;;;;0.00;100.00;103220.00;6124301;28;20024;-71
2023/01/25 00:07:27;;;;;;;17.13;5.87;;;;;;;0.09;100.00;103226.84;6124881;28;20067;-72
2023/01/25 00:10:23;;;;;;;15.57;4.93;;;;;;;0.02;100.00;103219.13;6125138;28;20035;-69
2023/01/25 00:13:18;;;;;;;11.55;4.65;;;;;;;-0.07;100.00;103207.03;6124153;28;20029;-68
2023/01/25 00:16:13;;;;;;;12.53;4.50;;;;;;;-0.11;100.00;103206.19;6124675;28;20028;-70
2023/01/25 00:19:09;;;;;;;10.40;4.67;;;;;;;0.07;100.00;103220.78;6124617;28;20026;-71
2023/01/25 00:22:04;;;;;;;18.13;6.88;;;;;;;0.06;100.00;103210.38;6123721;28;20267;-69
2023/01/25 00:24:59;;;;;;;14.70;5.23;;;;;;;-0.04;100.00;103202.66;6124598;28;20111;-70
2023/01/25 00:27:55;;;;;;;20.50;6.87;;;;;;;0.03;100.00;103207.81;6124369;28;20044;-70
2023/01/25 00:30:50;;;;;;;13.57;4.43;;;;;;;-0.05;100.00;103197.44;6124266;28;20558;-71
2023/01/25 00:33:59;;;;;;;14.63;4.95;;;;;;;0.03;100.00;103197.38;6123680;28;20032;-70
2023/01/25 00:36:56;;;;;;;16.15;5.70;;;;;;;0.03;100.00;103185.19;6124105;28;20040;-71
2023/01/25 00:39:51;;;;;;;14.27;5.13;;;;;;;0.06;100.00;103186.91;6124323;28;20034;-69
2023/01/25 00:42:46;;;;;;;12.73;4.77;;;;;;;-0.01;100.00;103186.13;6123318;28;20028;-71
2023/01/25 00:45:42;;;;;;;15.30;5.10;;;;;;;-0.05;100.00;103173.97;6123845;28;20122;-70
2023/01/25 00:48:37;;;;;;;11.50;5.57;;;;;;;-0.06;100.00;103178.38;6124035;28;20468;-71
2023/01/25 00:51:32;;;;;;;17.17;6.30;;;;;;;-0.05;100.00;103174.84;6123473;28;20078;-70
2023/01/25 00:54:28;;;;;;;13.93;6.20;;;;;;;-0.14;100.00;103167.16;6123205;28;20056;-70
2023/01/25 00:57:23;;;;;;;15.73;4.90;;;;;;;-0.03;100.00;103178.31;6122931;28;20089;-70
2023/01/25 01:00:18;;;;;;;11.57;4.70;;;;;;;-0.02;100.00;103177.44;6123658;28;20097;-71
2023/01/25 01:03:14;;;;;;;12.00;5.10;;;;;;;-0.05;100.00;103180.06;6122738;28;20040;-70
2023/01/25 01:06:11;;;;;;;12.35;5.10;;;;;;;0.03;100.00;103172.16;6123507;28;20120;-70
2023/01/25 01:09:10;;;;;;;11.27;4.38;;;;;;;0.04;100.00;103176.50;6123440;28;20028;-70
2023/01/25 01:12:06;;;;;;;10.63;4.43;;;;;;;0.04;100.00;103175.63;6122190;28;20841;-71
2023/01/25 01:15:01;;;;;;;14.23;6.30;;;;;;;-0.02;100.00;103169.59;6123447;28;20028;-69
2023/01/25 01:17:56;;;;;;;15.50;5.63;;;;;;;-0.05;100.00;103163.56;6123051;28;20039;-71
2023/01/25 01:20:52;;;;;;;14.37;5.37;;;;;;;-0.05;100.00;103164.44;6123218;28;20036;-71
2023/01/25 01:23:47;;;;;;;12.80;5.22;;;;;;;0.00;100.00;103165.22;6121913;28;20032;-69
2023/01/25 01:26:43;;;;;;;13.67;5.70;;;;;;;0.02;100.00;103170.44;6122831;28;20490;-71
2023/01/25 01:29:38;;;;;;;13.93;5.60;;;;;;;-0.09;100.00;103152.31;6123181;28;20046;-71
2023/01/25 01:32:33;;;;;;;11.70;4.33;;;;;;;-0.15;100.00;103147.16;6121640;28;20044;-68
2023/01/25 01:35:29;;;;;;;18.07;6.23;;;;;;;-0.07;100.00;103155.75;6122137;28;20150;-71
2023/01/25 01:38:24;;;;;;;13.50;5.55;;;;;;;-0.11;100.00;103141.03;6122641;28;20040;-71
2023/01/25 01:41:20;;;;;;;16.80;6.93;;;;;;;-0.09;100.00;103147.09;6122061;28;20036;-70
2023/01/25 01:44:18;;;;;;;15.05;5.88;;;;;;;-0.16;100.00;103134.13;6122092;28;20460;-71
2023/01/25 01:47:17;;;;;;;13.27;5.53;;;;;;;-0.11;100.00;103138.41;6121913;28;20562;-71
2023/01/25 01:50:18;;;;;;;17.23;6.70;;;;;;;-0.19;100.00;103123.78;6120924;28;20087;-69
2023/01/25 01:53:13;;;;;;;17.17;6.00;;;;;;;-0.22;100.00;103123.81;6121376;28;20379;-73
2023/01/25 01:56:12;;;;;;;19.27;6.50;;;;;;;-0.14;100.00;103135.00;6121981;28;20036;-73
2023/01/25 01:59:08;;;;;;;16.50;6.20;;;;;;;-0.11;100.00;103120.16;6121191;28;20267;-71
2023/01/25 02:02:03;;;;;;;16.65;5.88;;;;;;;-0.13;100.00;103121.06;6119552;28;20043;-68
2023/01/25 02:05:02;;;;;;;19.10;7.83;;;;;;;-0.16;100.00;103124.56;6121769;28;20320;-71
2023/01/25 02:07:57;;;;;;;19.88;6.38;;;;;;;-0.16;100.00;103121.97;6120665;28;20166;-71
2023/01/25 02:10:53;;;;;;;15.33;6.60;;;;;;;-0.11;100.00;103117.56;6121476;28;20422;-71
2023/01/25 02:13:49;;;;;;;19.50;6.88;;;;;;;-0.27;100.00;103100.38;6133338;28;20051;-72
2023/01/25 02:16:44;;;;;;;16.90;6.95;;;;;;;-0.11;100.00;103109.72;6120632;28;20039;-71
2023/01/25 02:20:08;;;;;;;19.75;8.07;;;;;;;-0.11;100.00;103114.94;6132256;28;20078;-70
2023/01/25 02:23:22;;;;;;;17.33;7.18;;;;;;;-0.12;100.00;103123.69;6102098;28;20111;-71
2023/01/25 02:26:18;;;;;;;17.77;6.53;;;;;;;-0.19;100.00;103119.41;6121135;28;20032;-71
2023/01/25 02:29:14;;;;;;;21.15;6.97;;;;;;;-0.18;100.00;103121.13;6121750;28;20115;-73
2023/01/25 02:32:09;;;;;;;16.45;6.60;;;;;;;-0.19;100.00;103113.34;6120833;28;20029;-71
2023/01/25 02:35:05;;;;;;;16.83;5.87;;;;;;;-0.22;100.00;103105.56;6120416;28;20033;-70
2023/01/25 02:38:00;;;;;;;21.70;6.00;;;;;;;-0.10;100.00;103119.28;6121815;28;20504;-69
2023/01/25 02:41:13;;;;;;;19.03;6.43;;;;;;;-0.15;100.00;103107.19;6120385;28;20050;-73
2023/01/25 02:44:11;;;;;;;15.68;6.32;;;;;;;-0.13;100.00;103111.50;6119781;28;20285;-71
2023/01/25 02:47:06;;;;;;;20.05;6.90;;;;;;;-0.09;100.00;103113.22;6118299;28;20032;-72
2023/01/25 02:50:02;;;;;;;24.83;9.07;;;;;;;-0.21;100.00;103099.44;6119756;28;20384;-72
2023/01/25 02:52:57;;;;;;;21.55;7.50;;;;;;;-0.18;100.00;103118.53;6120278;28;20028;-70
2023/01/25 02:55:52;;;;;;;25.10;9.00;;;;;;;-0.25;100.00;103093.44;6121244;28;20464;-71
2023/01/25 02:58:47;;;;;;;20.27;7.33;;;;;;;-0.23;100.00;103091.66;6121822;28;20068;-72
2023/01/25 03:01:44;;;;;;;19.37;7.87;;;;;;;-0.18;100.00;103084.63;6120768;28;20043;-73
2023/01/25 03:04:39;;;;;;;18.40;7.40;;;;;;;-0.24;100.00;103083.84;6120667;28;20029;-71
2023/01/25 03:07:34;;;;;;;21.93;8.03;;;;;;;-0.41;100.00;103060.63;6121342;28;20387;-73
2023/01/25 03:10:29;;;;;;;24.67;9.00;;;;;;;-0.31;100.00;103072.66;6121011;28;20037;-70
2023/01/25 03:13:25;;;;;;;24.43;8.70;;;;;;;-0.25;100.00;103075.19;6120692;28;20044;-72
2023/01/25 03:16:20;;;;;;;27.35;10.27;;;;;;;-0.32;100.00;103070.91;6121059;28;20047;-73
2023/01/25 03:19:15;;;;;;;17.77;7.17;;;;;;;-0.40;100.00;103064.94;6120916;28;20400;-70
2023/01/25 03:22:11;;;;;;;28.93;8.43;;;;;;;-0.26;100.00;103083.88;6120698;28;20044;-72
2023/01/25 03:25:07;;;;;;;23.00;8.70;;;;;;;-0.40;100.00;103064.94;6120537;28;20037;-72
2023/01/25 03:28:02;;;;;;;30.83;10.35;;;;;;;-0.32;100.00;103078.72;6124385;28;20039;-72
2023/01/25 03:30:57;;;;;;;28.97;9.13;;;;;;;-0.29;100.00;103073.47;6125822;28;20028;-73
2023/01/25 03:33:53;;;;;;;29.40;10.00;;;;;;;-0.27;100.00;103074.31;6124252;28;20086;-73
2023/01/25 03:36:48;;;;;;;24.77;8.80;;;;;;;-0.30;100.00;103069.13;6125532;28;20048;-71
2023/01/25 03:39:43;;;;;;;28.23;9.63;;;;;;;-0.31;100.00;103074.38;6125120;28;20384;-71
2023/01/25 03:42:38;;;;;;;28.23;9.47;;;;;;;-0.37;100.00;103051.00;6124876;28;20067;-71
2023/01/25 03:45:34;;;;;;;33.50;10.07;;;;;;;-0.19;100.00;103077.69;6125384;28;20099;-73
2023/01/25 03:48:29;;;;;;;26.90;8.53;;;;;;;-0.22;100.00;103067.28;6125037;28;20032;-70
2023/01/25 03:51:24;;;;;;;28.67;10.48;;;;;;;-0.36;100.00;103045.78;6124513;28;20040;-71
2023/01/25 03:54:20;;;;;;;28.93;10.43;;;;;;;-0.33;100.00;103052.69;6124444;28;20028;-72
2023/01/25 03:57:15;;;;;;;23.63;8.20;;;;;;;-0.28;100.00;103051.75;6124988;28;20036;-72
2023/01/25 04:00:11;;;;;;;32.03;10.90;;;;;;;-0.35;100.00;103024.03;6125007;28;20064;-70
2023/01/25 04:03:06;;;;;;;20.90;8.80;;;;;;;-0.35;100.00;103017.94;6123707;28;20035;-71
2023/01/25 04:06:02;;;;;;;33.10;10.93;;;;;;;-0.33;100.00;103034.44;6124827;28;20029;-72
2023/01/25 04:08:58;;;;;;;24.30;8.63;;;;;;;-0.35;100.00;103037.06;6124319;28;20128;-70
2023/01/25 04:11:53;;;;;;;29.30;10.53;;;;;;;-0.43;100.00;103015.44;6124031;28;20074;-71
2023/01/25 04:14:48;;;;;;;29.20;11.83;;;;;;;-0.37;100.00;103024.94;6124692;28;20451;-71
2023/01/25 04:17:44;;;;;;;35.40;12.17;;;;;;;-0.44;100.00;103020.69;6124303;28;20040;-72
2023/01/25 04:20:39;;;;;;;38.50;10.53;;;;;;;-0.49;100.00;103009.47;6124306;28;20070;-71
2023/01/25 04:23:34;;;;;;;44.80;16.30;;;;;;;-0.47;100.00;103016.38;6123599;28;20739;-72
2023/01/25 04:26:30;;;;;;;37.60;13.20;;;;;;;-0.40;100.00;103019.75;6124338;28;20051;-72
2023/01/25 04:29:25;;;;;;;54.73;14.67;;;;;;;-0.41;100.00;103018.06;6124245;28;20036;-71
2023/01/25 04:32:20;;;;;;;48.20;14.57;;;;;;;-0.47;100.00;103008.56;6123138;28;20509;-70
2023/01/25 04:35:16;;;;;;;56.17;17.90;;;;;;;-0.47;100.00;102995.53;6124539;28;20029;-70
2023/01/25 04:38:11;;;;;;;42.50;14.07;;;;;;;-0.46;100.00;103007.66;6123511;28;20120;-71
2023/01/25 04:41:08;;;;;;;52.10;17.08;;;;;;;-0.43;100.00;103012.84;6124359;28;20421;-72
2023/01/25 04:44:03;;;;;;;53.00;18.60;;;;;;;-0.48;100.00;102995.53;6123586;28;20447;-70
2023/01/25 04:46:58;;;;;;;55.97;17.80;;;;;;;-0.57;100.00;102978.28;6124019;28;20029;-72
2023/01/25 04:49:54;;;;;;;48.03;13.97;;;;;;;-0.50;100.00;102987.75;6123712;28;20037;-70
2023/01/25 04:52:49;;;;;;;45.00;14.67;;;;;;;-0.38;100.00;103007.59;6123012;28;20112;-73
2023/01/25 04:55:46;;;;;;;52.00;14.57;;;;;;;-0.35;100.00;103011.00;6123896;28;20364;-70
2023/01/25 04:58:41;;;;;;;38.10;12.07;;;;;;;-0.48;100.00;102993.81;6123857;28;20025;-71
2023/01/25 05:01:36;;;;;;;43.33;12.50;;;;;;;-0.41;100.00;102997.22;6123574;28;20035;-71
2023/01/25 05:04:31;;;;;;;35.23;11.00;;;;;;;-0.43;100.00;103004.16;6122502;28;20025;-73
2023/01/25 05:07:27;;;;;;;29.67;10.57;;;;;;;-0.57;100.00;102986.09;6123660;28;20468;-73
2023/01/25 05:10:22;;;;;;;34.20;12.80;;;;;;;-0.65;100.00;102977.50;6123516;28;20060;-73
2023/01/25 05:13:17;;;;;;;35.27;9.57;;;;;;;-0.50;100.00;102990.38;6122661;28;20036;-72
2023/01/25 05:16:13;;;;;;;39.03;10.57;;;;;;;-0.57;100.00;102974.84;6123204;28;20430;-71
2023/01/25 05:19:08;;;;;;;30.60;9.97;;;;;;;-0.46;100.00;102978.16;6123129;28;20081;-72
2023/01/25 05:22:06;;;;;;;37.03;10.27;;;;;;;-0.54;100.00;102980.84;6122137;28;20267;-72
2023/01/25 05:25:02;;;;;;;30.00;9.52;;;;;;;-0.52;100.00;102975.63;6133078;28;20025;-71
2023/01/25 05:27:58;;;;;;;41.20;12.38;;;;;;;-0.47;100.00;102977.31;6133879;28;20107;-72
2023/01/25 05:30:53;;;;;;;27.07;9.30;;;;;;;-0.49;100.00;102978.22;6121123;28;20414;-71
2023/01/25 05:33:48;;;;;;;31.63;9.43;;;;;;;-0.61;100.00;102960.97;6114395;28;20081;-72
2023/01/25 05:36:43;;;;;;;30.50;10.03;;;;;;;-0.58;100.00;102973.97;6121042;28;20475;-73
2023/01/25 05:39:39;;;;;;;31.97;8.67;;;;;;;-0.65;100.00;102961.88;6114968;28;20043;-71
2023/01/25 05:42:34;;;;;;;33.63;9.05;;;;;;;-0.70;100.00;102958.47;6121590;28;20037;-71
2023/01/25 05:45:30;;;;;;;35.78;10.95;;;;;;;-0.72;100.00;102975.88;6113964;28;20032;-72
2023/01/25 05:48:25;;;;;;;37.57;10.60;;;;;;;-0.74;100.00;102962.88;6117673;28;20087;-71
2023/01/25 05:51:20;;;;;;;33.90;11.00;;;;;;;-0.63;100.00;102974.03;6117949;28;20044;-73
2023/01/25 05:54:16;;;;;;;30.05;9.57;;;;;;;-0.63;100.00;102965.34;6121939;28;20158;-72
2023/01/25 05:57:13;;;;;;;36.63;10.45;;;;;;;-0.67;100.00;102955.84;6114895;28;20060;-73
2023/01/25 06:00:08;;;;;;;33.47;10.77;;;;;;;-0.73;100.00;102959.38;6120915;28;20060;-73
2023/01/25 06:03:04;;;;;;;32.97;9.55;;;;;;;-0.81;100.00;102952.53;6120840;28;20034;-72
2023/01/25 06:06:01;;;;;;;29.90;8.17;;;;;;;-0.77;100.00;102956.84;6120986;28;20051;-70
2023/01/25 06:08:56;;;;;;;35.15;8.77;;;;;;;-0.95;100.00;102949.28;6122356;28;20063;-71
2023/01/25 06:11:52;;;;;;;32.33;10.03;;;;;;;-0.89;100.00;102962.19;6121098;28;20410;-71
2023/01/25 06:14:47;;;;;;;30.23;9.00;;;;;;;-0.99;100.00;102942.34;6122315;28;20024;-71
2023/01/25 06:17:42;;;;;;;30.50;10.47;;;;;;;-0.94;100.00;102943.16;6121800;28;20036;-70
2023/01/25 06:20:38;;;;;;;25.07;8.33;;;;;;;-0.82;100.00;102945.63;6121938;28;20086;-73
2023/01/25 06:23:33;;;;;;;28.27;8.67;;;;;;;-0.82;100.00;102958.66;6121248;28;20040;-73
2023/01/25 06:26:28;;;;;;;28.50;8.07;;;;;;;-0.90;100.00;102960.50;6119832;28;20413;-73
2023/01/25 06:29:23;;;;;;;32.03;9.63;;;;;;;-1.10;100.00;102957.22;6121493;28;20040;-73
2023/01/25 06:32:19;;;;;;;30.23;8.37;;;;;;;-1.17;100.00;102947.78;6120938;28;20041;-73
2023/01/25 06:35:14;;;;;;;24.25;7.13;;;;;;;-1.10;100.00;102949.41;6121039;28;20031;-73
2023/01/25 06:38:10;;;;;;;30.13;9.32;;;;;;;-1.05;100.00;102951.09;6121594;28;20111;-71
2023/01/25 06:41:07;;;;;;;25.10;9.80;;;;;;;-0.98;100.00;102963.16;6121697;28;20070;-72
2023/01/25 06:44:02;;;;;;;36.90;10.23;;;;;;;-0.99;100.00;102961.44;6120876;28;20033;-70
2023/01/25 06:46:57;;;;;;;26.43;9.73;;;;;;;-0.98;100.00;102951.91;6121365;28;20093;-71
2023/01/25 06:49:52;;;;;;;28.30;9.57;;;;;;;-1.04;100.00;102936.34;6121522;28;20503;-72
2023/01/25 06:52:52;;;;;;;35.07;11.00;;;;;;;-1.10;100.00;102942.47;6120524;28;20040;-72
2023/01/25 06:55:47;;;;;;;32.85;10.57;;;;;;;-1.18;100.00;102946.91;6105655;28;20063;-73
2023/01/25 06:58:43;;;;;;;40.00;11.33;;;;;;;-1.23;100.00;102939.16;6114627;28;20028;-73
2023/01/25 07:01:38;;;;;;;30.27;8.52;;;;;;;-1.00;100.00;102958.84;6123655;28;20130;-71
2023/01/25 07:04:33;;;;;;;37.07;9.90;;;;;;;-1.16;100.00;102941.69;6125671;28;20501;-70
2023/01/25 07:07:29;;;;;;;28.87;9.20;;;;;;;-1.09;100.00;102953.75;6124537;28;20430;-73
2023/01/25 07:10:24;;;;;;;34.47;8.90;;;;;;;-1.08;100.00;102938.13;6125615;28;20123;-72
2023/01/25 07:13:19;;;;;;;29.83;7.53;;;;;;;-1.06;100.00;102945.91;6125769;28;20040;-73
2023/01/25 07:16:19;;;;;;;27.63;7.80;;;;;;;-1.11;100.00;102940.75;6124085;28;20134;-72
2023/01/25 07:19:14;;;;;;;29.67;9.05;;;;;;;-1.13;100.00;102931.22;6126141;28;20365;-71
2023/01/25 07:22:09;;;;;;;34.17;10.82;;;;;;;-1.17;100.00;102933.03;6125450;28;20430;-73
2023/01/25 07:25:05;;;;;;;42.00;11.95;;;;;;;-1.30;100.00;102926.22;6122169;28;20028;-73
2023/01/25 07:28:00;;;;;;;36.67;10.93;;;;;;;-1.33;100.00;102928.84;6126141;28;20032;-70
2023/01/25 07:30:56;;;;;;;40.10;9.77;;;;;;;-1.16;100.00;102950.34;6123708;28;20043;-70
2023/01/25 07:33:53;;;;;;;28.47;10.30;;;;;;;-1.10;100.00;102944.22;6120148;28;20028;-73
2023/01/25 07:36:48;;;;;;;23.80;7.55;;;;;;;-1.16;100.00;102939.94;6124660;28;20044;-73
2023/01/25 07:39:49;;;;;;;17.10;5.47;;;;;;;-1.18;100.00;102949.50;6125506;28;20032;-71
2023/01/25 07:42:44;;;;;;;14.40;5.60;;;;;;;-1.16;100.00;102952.09;6124740;28;20165;-73
2023/01/25 07:45:41;;;;;;;14.80;5.27;;;;;;;-1.02;100.00;102952.81;6124666;28;20036;-72
2023/01/25 07:48:37;;;;;;;16.08;5.80;;;;;;;-0.90;100.00;102937.06;6125137;28;20037;-72
2023/01/25 07:51:32;;;;;;;23.25;7.18;;;;;;;-1.10;100.00;102932.06;6125200;28;20146;-73
2023/01/25 07:54:28;;;;;;;17.10;5.77;;;;;;;-1.04;100.00;102933.75;6124119;28;20032;-73
2023/01/25 07:57:24;;;;;;;18.92;6.13;;;;;;;-1.09;100.00;102927.72;6124789;28;20059;-72
2023/01/25 08:00:19;;;;;;;16.33;6.07;;;;;;;-1.10;100.00;102921.66;6117401;28;20037;-74
2023/01/25 08:03:14;;;;;;;21.17;7.10;;;;;;;-0.95;100.00;102912.81;6104314;28;20049;-70
2023/01/25 08:06:10;;;;;;;16.63;6.43;;;;;;;-1.07;100.00;102921.63;6124073;28;20067;-74
2023/01/25 08:09:24;;;;;;;20.30;6.78;;;;;;;-0.92;100.00;102928.38;6122812;28;20051;-72
2023/01/25 08:12:19;;;;;;;16.38;6.53;;;;;;;-1.03;100.00;102918.09;6123093;28;20119;-71
2023/01/25 08:15:15;;;;;;;22.20;7.20;;;;;;;-0.99;100.00;102918.94;6124393;28;20110;-73
2023/01/25 08:18:10;;;;;;;19.03;6.70;;;;;;;-0.91;100.00;102911.88;6124027;28;20032;-72
2023/01/25 08:21:05;;;;;;;16.97;5.37;;;;;;;-0.95;100.00;102911.06;6124384;28;20032;-73
2023/01/25 08:24:03;;;;;;;17.20;6.17;;;;;;;-0.85;100.00;102922.22;6123837;28;20476;-71
2023/01/25 08:26:59;;;;;;;14.45;5.85;;;;;;;-0.78;100.00;102909.09;6124475;28;20363;-72
2023/01/25 08:29:54;;;;;;;16.67;6.33;;;;;;;-0.91;100.00;102902.34;6123673;28;20483;-71
2023/01/25 08:32:49;;;;;;;20.67;6.10;;;;;;;-0.89;100.00;102902.31;6127403;28;20048;-70
2023/01/25 08:35:55;;;;;;;18.60;5.60;;;;;;;-0.84;100.00;102905.69;6122870;28;20029;-73
2023/01/25 08:38:58;;;;;;;17.45;6.72;;;;;;;-0.79;100.00;102912.56;6121892;28;20380;-73
2023/01/25 08:41:54;;;;;;;21.85;6.38;;;;;;;-0.62;100.00;102912.34;6123103;28;20032;-74
2023/01/25 08:44:49;;;;;;;18.63;6.17;;;;;;;-0.59;100.00;102907.09;6123163;28;20027;-72
2023/01/25 08:47:44;;;;;;;16.57;6.23;;;;;;;-0.77;100.00;102894.34;6123904;28;20040;-73
2023/01/25 08:50:46;;;;;;;22.13;5.30;;;;;;;-0.80;100.00;102892.66;6123810;28;20541;-71
2023/01/25 08:53:41;;;;;;;;;;;;;;;-0.77;100.00;102899.56;6123839;28;20067;-72
2023/01/25 08:56:38;;;;;;;17.73;5.80;;;;;;;-0.90;100.00;102883.25;6123227;28;19920;-72
2023/01/25 08:59:33;;;;;;;19.58;6.10;;;;;;;-0.93;100.00;102882.41;6131330;28;20476;-74
2023/01/25 09:02:28;;;;;;;18.53;6.47;;;;;;;-0.89;100.00;102894.50;6123118;28;20033;-73
2023/01/25 09:05:24;;;;;;;22.20;5.43;;;;;;;-0.84;100.00;102888.34;6123311;28;20032;-72
2023/01/25 09:08:19;;;;;;;18.93;5.87;;;;;;;-0.92;100.00;102886.72;6123472;28;20097;-72
2023/01/25 09:11:17;;;;;;;22.07;6.53;;;;;;;-1.07;100.00;102861.75;6123574;28;20361;-71
2023/01/25 09:14:12;;;;;;;14.50;5.93;;;;;;;-1.04;100.00;102866.06;6122816;28;20353;-71
2023/01/25 09:17:08;;;;;;;21.73;6.60;;;;;;;-1.12;100.00;102875.72;6123166;28;20036;-71
2023/01/25 09:20:07;;;;;;;21.92;7.90;;;;;;;-1.11;100.00;102873.06;6123277;28;20478;-71
2023/01/25 09:23:03;;;;;;;22.08;8.40;;;;;;;-1.15;100.00;102870.53;6122340;28;20040;-73
2023/01/25 09:25:59;;;;;;;17.07;6.50;;;;;;;-1.18;100.00;102861.03;6121811;28;20032;-71
2023/01/25 09:28:55;;;;;;;25.40;7.18;;;;;;;-1.13;100.00;102847.94;6123262;28;20024;-71
2023/01/25 09:31:51;;;;;;;22.40;6.97;;;;;;;-0.78;100.00;102871.78;6121993;28;20040;-71
2023/01/25 09:34:46;;;;;;;26.67;8.13;;;;;;;-0.79;100.00;102859.66;6122835;28;20078;-73
2023/01/25 09:37:41;;;;;;;19.77;7.60;;;;;;;-0.79;100.00;102859.66;6122895;28;20479;-73
2023/01/25 09:40:38;;;;;;;20.70;7.30;;;;;;;-0.81;100.00;102845.78;6121871;28;20036;-71
2023/01/25 09:43:47;;;;;;;24.92;7.47;;;;;;;-0.79;100.00;102859.66;6122223;28;20075;-73
2023/01/25 09:46:52;;;;;;;16.80;5.95;;;;;;;-0.79;100.00;102855.28;6121160;28;20066;-73
2023/01/25 09:49:51;;;;;;;22.35;8.43;;;;;;;-0.82;100.00;102851.88;6121477;28;20039;-72
2023/01/25 09:52:55;;;;;;;20.63;8.02;;;;;;;-1.09;100.00;102827.09;6121803;28;20036;-72
2023/01/25 09:55:57;;;;;;;19.92;7.35;;;;;;;-0.83;100.00;102826.72;6122160;28;20029;-72
2023/01/25 09:58:57;;;;;;;19.25;7.05;;;;;;;-0.78;100.00;102825.78;6121036;28;20031;-70
2023/01/25 10:02:02;;;;;;;21.92;7.30;;;;;;;-0.76;100.00;102812.75;6120687;28;20433;-72
2023/01/25 10:05:06;;;;;;;20.77;7.05;;;;;;;-0.87;100.00;102805.06;6120903;28;20029;-71
2023/01/25 10:08:19;;;;;;;17.90;5.18;;;;;;;-0.75;100.00;102817.91;6121114;28;20037;-72
2023/01/25 10:11:26;;;;;;;14.85;6.85;;;;;;;-0.80;100.00;102811.06;6121980;28;20511;-73
2023/01/25 10:14:21;;;;;;;22.95;6.72;;;;;;;-0.71;100.00;102806.56;6120026;28;20037;-71
2023/01/25 10:17:30;;;;;;;20.50;7.10;;;;;;;-0.63;100.00;102809.06;6122012;28;20036;-73
2023/01/25 10:20:58;;;;;;;20.73;6.43;;;;;;;-0.68;100.00;102801.31;6121168;28;20557;-71
2023/01/25 10:24:09;;;;;;;18.55;5.57;;;;;;;-0.77;100.00;102800.59;6119648;28;20032;-72
2023/01/25 10:27:23;;;;;;;17.90;5.47;;;;;;;-0.77;100.00;102796.25;6120696;28;20140;-73
2023/01/25 10:30:24;;;;;;;18.95;6.60;;;;;;;-0.70;100.00;102783.97;6121423;28;20832;-72
2023/01/25 10:33:20;;;;;;;18.60;6.13;;;;;;;-0.73;100.00;102771.88;6121436;28;20468;-71
2023/01/25 10:36:17;;;;;;;17.52;5.97;;;;;;;-0.71;100.00;102761.44;6121091;28;20040;-71
2023/01/25 10:39:12;;;;;;;17.40;6.32;;;;;;;-0.71;100.00;102764.88;6120307;28;20471;-73
2023/01/25 10:42:10;;;;;;;19.90;7.60;;;;;;;-0.56;100.00;102757.72;6121257;28;20090;-73
2023/01/25 10:45:13;;;;;;;18.50;6.68;;;;;;;-0.51;100.00;102751.53;6121105;28;20040;-72
2023/01/25 10:48:14;;;;;;;19.55;6.75;;;;;;;-0.67;100.00;102732.72;6121499;28;20055;-72
2023/01/25 10:51:27;;;;;;;18.55;7.13;;;;;;;-0.66;100.00;102744.84;6120265;28;20032;-70
2023/01/25 10:54:23;;;;;;;15.57;5.20;;;;;;;-0.73;100.00;102730.19;6112369;28;20032;-71
2023/01/25 10:57:20;;;;;;;19.50;5.88;;;;;;;-0.65;100.00;102727.47;6121319;28;20812;-72
2023/01/25 11:00:26;;;;;;;20.17;6.80;;;;;;;-0.52;100.00;102735.94;6119937;28;20537;-73
2023/01/25 11:03:21;;;;;;;18.55;6.03;;;;;;;-0.55;100.00;102715.16;6119664;28;20032;-70
2023/01/25 11:06:28;;;;;;;21.63;6.77;;;;;;;-0.71;100.00;102711.97;6120890;28;20037;-73
2023/01/25 11:09:35;;;;;;;18.63;6.05;;;;;;;-0.58;100.00;102723.88;6121707;28;20051;-72
2023/01/25 11:12:31;;;;;;;17.45;6.43;;;;;;;-0.55;100.00;102720.38;6120728;28;20081;-73
2023/01/25 11:15:26;;;;;;;18.83;6.83;;;;;;;-0.63;100.00;102699.66;6114711;28;20029;-73
2023/01/25 11:18:32;;;;;;;17.93;7.07;;;;;;;-0.57;100.00;102689.13;6119962;28;20282;-71
2023/01/25 11:21:32;;;;;;;25.63;8.20;;;;;;;-0.59;100.00;102690.91;6121279;28;20035;-72
2023/01/25 11:24:29;;;;;;;25.77;6.43;;;;;;;-0.78;100.00;102653.03;6120233;28;20056;-73
2023/01/25 11:27:26;;;;;;;18.95;6.00;;;;;;;-0.51;100.00;102702.03;6120942;28;20028;-72
2023/01/25 11:30:21;;;;;;;20.63;6.53;;;;;;;-0.60;100.00;102700.44;6120934;28;20120;-73
2023/01/25 11:33:18;;;;;;;20.07;6.53;;;;;;;-0.55;100.00;102686.50;6120231;28;20036;-73
2023/01/25 11:36:33;;;;;;;19.15;6.57;;;;;;;-0.58;100.00;102677.00;6119544;28;20043;-71
2023/01/25 11:39:44;;;;;;;15.55;5.97;;;;;;;-0.50;100.00;102669.91;6120921;28;20059;-72
2023/01/25 11:42:57;;;;;;;26.05;7.32;;;;;;;-0.42;100.00;102661.94;6119981;28;20506;-72
2023/01/25 11:46:05;;;;;;;25.40;8.68;;;;;;;-0.51;100.00;102643.84;6119033;28;20028;-73
2023/01/25 11:49:34;;;;;;;25.13;7.88;;;;;;;-0.40;100.00;102661.03;6126878;28;20585;-72
2023/01/25 11:52:43;;;;;;;23.55;7.35;;;;;;;-0.40;100.00;102649.72;6123404;28;20123;-72
2023/01/25 11:55:49;;;;;;;22.42;6.63;;;;;;;-0.62;100.00;102636.25;6114806;28;20044;-71
2023/01/25 11:58:55;;;;;;;23.67;6.90;;;;;;;-0.62;100.00;102644.06;6124205;28;20039;-72
2023/01/25 12:02:14;;;;;;;22.48;7.45;;;;;;;-0.64;100.00;102638.88;6122584;28;20103;-73
2023/01/25 12:05:22;;;;;;;15.25;6.05;;;;;;;-0.65;100.00;102628.47;6123577;28;20082;-71
2023/01/25 12:09:00;;;;;;;24.33;9.55;;;;;;;-0.61;100.00;102630.16;6121009;28;20068;-70
2023/01/25 12:12:27;;;;;;;19.40;7.15;;;;;;;-0.72;100.00;102609.53;6119660;28;20033;-72
2023/01/25 12:15:31;;;;;;;22.23;7.40;;;;;;;-0.70;100.00;102610.34;6114468;28;20119;-73
2023/01/25 12:19:03;;;;;;;17.73;6.47;;;;;;;-0.73;100.00;102579.16;6122952;28;20476;-73
2023/01/25 12:22:01;;;;;;;20.63;6.40;;;;;;;-0.62;100.00;102594.56;6102218;28;20052;-73
2023/01/25 12:25:17;;;;;;;23.98;6.97;;;;;;;-0.58;100.00;102558.91;6123103;28;20396;-73
2023/01/25 12:28:18;;;;;;;23.67;7.50;;;;;;;-0.55;100.00;102549.28;6122024;28;20044;-70
2023/01/25 12:31:18;;;;;;;25.10;7.18;;;;;;;-0.68;100.00;102540.00;6123690;28;20039;-71
2023/01/25 12:34:20;;;;;;;22.55;7.35;;;;;;;-0.66;100.00;102553.84;6122157;28;20118;-72
2023/01/25 12:37:19;;;;;;;;;;;;;;;-0.56;100.00;102544.09;6123689;28;20060;-72
2023/01/25 12:40:18;;;;;;;18.73;6.00;;;;;;;-0.60;100.00;102525.91;6123229;28;19951;-73
2023/01/25 12:43:45;;;;;;;24.58;7.80;;;;;;;-0.52;100.00;102523.19;6122014;28;20040;-70
2023/01/25 12:47:09;;;;;;;19.33;6.90;;;;;;;-0.64;100.00;102499.97;6108240;28;20045;-70
2023/01/25 12:50:16;;;;;;;24.23;7.10;;;;;;;-0.53;100.00;102518.84;6123749;28;20036;-70
2023/01/25 12:53:20;;;;;;;19.92;7.30;;;;;;;-0.51;100.00;102509.25;6118745;28;20033;-71
2023/01/25 12:56:32;;;;;;;20.70;7.25;;;;;;;-0.35;100.00;102510.66;6122087;28;20031;-70
2023/01/25 12:59:46;;;;;;;22.17;7.20;;;;;;;-0.56;100.00;102492.88;6118886;28;20043;-71
2023/01/25 13:02:56;;;;;;;20.05;6.88;;;;;;;-0.60;100.00;102491.22;6122823;28;20044;-72
2023/01/25 13:06:03;;;;;;;20.98;7.68;;;;;;;-0.60;100.00;102476.44;6123828;28;20036;-71
2023/01/25 13:09:27;;;;;;;19.70;6.60;;;;;;;-0.51;100.00;102464.09;6123599;28;20020;-71
2023/01/25 13:12:23;;;;;;;21.25;6.28;;;;;;;-0.55;100.00;102471.16;6123056;28;20067;-71
2023/01/25 13:15:38;;;;;;;20.50;8.38;;;;;;;-0.58;100.00;102470.34;6123345;28;20433;-72
2023/01/25 13:18:35;;;;;;;20.75;7.60;;;;;;;-0.61;100.00;102460.84;6123598;28;20032;-73
2023/01/25 13:21:36;;;;;;;16.67;7.03;;;;;;;-0.57;100.00;102462.47;6123334;28;20021;-71
2023/01/25 13:24:32;;;;;;;18.98;7.82;;;;;;;-0.64;100.00;102456.56;6122474;28;20036;-71
2023/01/25 13:27:34;;;;;;;19.70;6.07;;;;;;;-0.72;100.00;102460.22;6123054;28;20031;-71
2023/01/25 13:30:33;;;;;;;19.63;5.80;;;;;;;-0.62;100.00;102451.31;6123386;28;20032;-73
2023/01/25 13:33:34;;;;;;;22.35;6.75;;;;;;;-0.70;100.00;102445.41;6122255;28;20045;-70